TAF SPHI
SPHI 271700Z 2718/2818 19012KT CAVOK TX23/2719Z TN17/2811Z TEMPO 2721/2723 19020KT BECMG 2809/2811 17007KT 9999 OVC013 BECMG 2815/2816 20012KT SCT025=
METAR SPHI
WC SPHI
WS SPHI
WV SPHI